Time;durP1;ratioP1;P1;durP2;ratioP2;P2;SDS_P1;SDS_P2;PMS_P1;PMS_P2;Temp;Humidity;BMP_temperature;BMP_pressure;BME280_temperature;BME280_humidity;BME280_pressure;Samples;Min_cycle;Max_cycle;Signal;HPM_P1;HPM_P2
2021/04/06 00:02:26;;;;;;;31.70;5.28;;;;;;;;;;4991107;28;20030;-73
2021/04/06 00:04:53;;;;;;;47.13;7.20;;;;;;;;;;4990981;28;20557;-72
2021/04/06 00:07:20;;;;;;;29.42;4.75;;;;;;;;;;4993332;28;20026;-72
2021/04/06 00:09:49;;;;;;;17.40;4.22;;;;;;;;;;4991169;28;20046;-74
2021/04/06 00:12:16;;;;;;;26.33;4.55;;;;;;;;;;4990967;28;20030;-72
2021/04/06 00:14:43;;;;;;;29.17;5.38;;;;;;;;;;4986771;28;20035;-72
2021/04/06 00:17:10;;;;;;;28.83;5.53;;;;;;;;;;4977922;28;20562;-72
2021/04/06 00:19:40;;;;;;;37.80;4.25;;;;;;;;;;4986001;28;20039;-71
2021/04/06 00:22:07;;;;;;;29.65;4.55;;;;;;;;;;4990886;28;20033;-73
2021/04/06 00:24:35;;;;;;;33.15;4.82;;;;;;;;;;4987355;28;20495;-73
2021/04/06 00:27:08;;;;;;;35.28;6.55;;;;;;;;;;4990155;28;20038;-73
2021/04/06 00:29:35;;;;;;;25.33;4.63;;;;;;;;;;4988743;28;20093;-69
2021/04/06 00:32:02;;;;;;;23.05;3.45;;;;;;;;;;4969452;28;20046;-71
2021/04/06 00:34:29;;;;;;;23.13;4.50;;;;;;;;;;4989217;28;20022;-72
2021/04/06 00:36:56;;;;;;;26.75;4.03;;;;;;;;;;4981149;28;20110;-71
2021/04/06 00:39:27;;;;;;;23.88;4.30;;;;;;;;;;4987664;28;20034;-72
2021/04/06 00:41:53;;;;;;;22.55;3.33;;;;;;;;;;4964565;28;20047;-72
2021/04/06 00:44:19;;;;;;;24.70;3.97;;;;;;;;;;4992424;28;20022;-71
2021/04/06 00:46:45;;;;;;;18.92;2.55;;;;;;;;;;4989894;28;20107;-72
2021/04/06 00:49:13;;;;;;;24.45;3.47;;;;;;;;;;4990078;28;20037;-75
2021/04/06 00:51:40;;;;;;;21.85;3.53;;;;;;;;;;4987604;28;20040;-73
2021/04/06 00:54:07;;;;;;;28.10;5.30;;;;;;;;;;4990851;28;20092;-74
2021/04/06 00:56:35;;;;;;;21.35;3.55;;;;;;;;;;4989492;28;20026;-73
2021/04/06 00:59:02;;;;;;;39.50;5.32;;;;;;;;;;4986907;28;20027;-71
2021/04/06 01:01:29;;;;;;;25.35;5.25;;;;;;;;;;4989732;28;20117;-75
2021/04/06 01:03:57;;;;;;;26.55;3.38;;;;;;;;;;4989477;28;20053;-75
2021/04/06 01:06:23;;;;;;;19.88;2.97;;;;;;;;;;4989927;28;20033;-76
2021/04/06 01:08:51;;;;;;;27.63;4.07;;;;;;;;;;4988159;28;20030;-73
2021/04/06 01:11:18;;;;;;;38.33;5.15;;;;;;;;;;4973771;28;20026;-76
2021/04/06 01:13:44;;;;;;;25.10;5.82;;;;;;;;;;4991001;28;20081;-78
2021/04/06 01:16:10;;;;;;;22.52;4.28;;;;;;;;;;4973422;28;20038;-74
2021/04/06 01:18:36;;;;;;;28.90;5.07;;;;;;;;;;4972621;28;20053;-77
2021/04/06 01:21:12;;;;;;;20.35;4.65;;;;;;;;;;4990364;28;20026;-72
2021/04/06 01:23:38;;;;;;;31.55;4.05;;;;;;;;;;4990408;28;20034;-73
2021/04/06 01:26:09;;;;;;;22.48;3.55;;;;;;;;;;4980120;28;20095;-78
2021/04/06 01:28:35;;;;;;;12.52;2.88;;;;;;;;;;4989107;28;20026;-72
2021/04/06 01:31:01;;;;;;;19.55;4.68;;;;;;;;;;4988497;28;20041;-72
2021/04/06 01:33:31;;;;;;;18.73;2.90;;;;;;;;;;4988677;28;20078;-78
2021/04/06 01:35:59;;;;;;;24.10;3.88;;;;;;;;;;4983424;28;20023;-79
2021/04/06 01:38:27;;;;;;;26.63;4.32;;;;;;;;;;4988157;28;20027;-71
2021/04/06 01:40:57;;;;;;;22.52;3.67;;;;;;;;;;4986870;28;20022;-74
2021/04/06 01:43:26;;;;;;;23.60;3.50;;;;;;;;;;4986480;28;20868;-74
2021/04/06 01:46:00;;;;;;;34.10;4.88;;;;;;;;;;4986391;28;20019;-74
2021/04/06 01:48:28;;;;;;;19.83;3.50;;;;;;;;;;4988962;28;20113;-81
2021/04/06 01:50:55;;;;;;;25.92;4.35;;;;;;;;;;4987184;28;20022;-75
2021/04/06 01:53:22;;;;;;;37.55;4.57;;;;;;;;;;4981082;28;20030;-73
2021/04/06 01:55:51;;;;;;;23.45;3.80;;;;;;;;;;4989403;28;20034;-72
2021/04/06 01:58:19;;;;;;;22.40;4.75;;;;;;;;;;4988651;28;20030;-73
2021/04/06 02:03:14;;;;;;;27.88;3.13;;;;;;;;;;4993355;28;20077;-70
2021/04/06 02:05:42;;;;;;;22.23;3.72;;;;;;;;;;4979179;28;20551;-75
2021/04/06 02:08:13;;;;;;;24.17;2.97;;;;;;;;;;4991000;28;20444;-71
2021/04/06 02:10:39;;;;;;;24.40;3.45;;;;;;;;;;4993278;28;20018;-73
2021/04/06 02:13:12;;;;;;;25.05;3.47;;;;;;;;;;4993794;28;20046;-77
2021/04/06 02:15:53;;;;;;;15.82;2.90;;;;;;;;;;4990167;28;20062;-74
2021/04/06 02:18:26;;;;;;;17.55;2.17;;;;;;;;;;4978656;28;20026;-72
2021/04/06 02:20:53;;;;;;;24.30;3.78;;;;;;;;;;4993235;28;20037;-72
2021/04/06 02:23:19;;;;;;;24.13;3.53;;;;;;;;;;4990707;28;20054;-70
2021/04/06 02:25:50;;;;;;;30.77;3.92;;;;;;;;;;4974065;28;20038;-74
2021/04/06 02:28:16;;;;;;;32.35;3.80;;;;;;;;;;4990738;28;20616;-76
2021/04/06 02:30:49;;;;;;;20.02;3.53;;;;;;;;;;4991315;28;20018;-72
2021/04/06 02:33:17;;;;;;;11.40;2.67;;;;;;;;;;4991247;28;20042;-72
2021/04/06 02:35:53;;;;;;;18.27;2.40;;;;;;;;;;4993488;28;20031;-75
2021/04/06 02:38:19;;;;;;;22.02;4.07;;;;;;;;;;4986680;28;20110;-75
2021/04/06 02:40:45;;;;;;;24.08;2.88;;;;;;;;;;4984731;28;20073;-72
2021/04/06 02:43:11;;;;;;;17.33;4.30;;;;;;;;;;4992501;28;20085;-74
2021/04/06 02:45:37;;;;;;;29.35;4.32;;;;;;;;;;4992062;28;20027;-73
2021/04/06 02:48:13;;;;;;;16.73;4.32;;;;;;;;;;4989389;28;20467;-75
2021/04/06 02:50:40;;;;;;;16.17;3.00;;;;;;;;;;4993074;28;20101;-76
2021/04/06 02:53:10;;;;;;;20.55;3.70;;;;;;;;;;4984349;28;20108;-73
2021/04/06 02:55:37;;;;;;;23.88;3.10;;;;;;;;;;4992039;28;21264;-75
2021/04/06 02:58:12;;;;;;;20.38;3.35;;;;;;;;;;4983909;28;20022;-74
2021/04/06 03:00:38;;;;;;;18.23;2.55;;;;;;;;;;4992423;28;20037;-74
2021/04/06 03:03:05;;;;;;;21.00;3.42;;;;;;;;;;4992812;28;20116;-75
2021/04/06 03:05:31;;;;;;;20.25;3.22;;;;;;;;;;4971802;28;20019;-74
2021/04/06 03:07:57;;;;;;;14.85;2.97;;;;;;;;;;4990691;28;20105;-73
2021/04/06 03:10:24;;;;;;;19.38;3.03;;;;;;;;;;4991984;28;20061;-73
2021/04/06 03:12:50;;;;;;;18.98;2.78;;;;;;;;;;4989662;28;20099;-79
2021/04/06 03:15:26;;;;;;;18.00;3.28;;;;;;;;;;4992434;28;20026;-77
2021/04/06 03:17:55;;;;;;;13.98;2.30;;;;;;;;;;4988420;28;20053;-80
2021/04/06 03:20:22;;;;;;;12.85;2.80;;;;;;;;;;4992451;28;20025;-75
2021/04/06 03:22:52;;;;;;;16.33;2.58;;;;;;;;;;4991059;28;20133;-77
2021/04/06 03:25:18;;;;;;;19.02;2.67;;;;;;;;;;4992146;28;20014;-77
2021/04/06 03:27:45;;;;;;;16.88;3.25;;;;;;;;;;4984709;28;20036;-73
2021/04/06 03:30:12;;;;;;;27.25;3.30;;;;;;;;;;4978406;28;20027;-78
2021/04/06 03:32:40;;;;;;;20.23;2.53;;;;;;;;;;4991031;28;20051;-72
2021/04/06 03:35:06;;;;;;;26.05;4.28;;;;;;;;;;4982745;28;20036;-72
2021/04/06 03:37:32;;;;;;;21.90;2.38;;;;;;;;;;4987458;28;20500;-72
2021/04/06 03:39:59;;;;;;;18.38;2.30;;;;;;;;;;4991890;28;20060;-72
2021/04/06 03:42:26;;;;;;;16.15;2.08;;;;;;;;;;4991038;28;20280;-73
2021/04/06 03:45:04;;;;;;;19.73;2.03;;;;;;;;;;4991510;28;20488;-75
2021/04/06 03:47:50;;;;;;;7.97;1.40;;;;;;;;;;4989311;28;20030;-73
2021/04/06 03:50:30;;;;;;;14.23;2.17;;;;;;;;;;4986189;28;20027;-70
2021/04/06 03:53:03;;;;;;;14.52;2.10;;;;;;;;;;4991099;28;20034;-77
2021/04/06 03:55:29;;;;;;;14.93;2.30;;;;;;;;;;4991159;28;20034;-76
2021/04/06 03:58:02;;;;;;;14.40;2.30;;;;;;;;;;4990257;28;20119;-71
2021/04/06 04:00:28;;;;;;;16.55;2.55;;;;;;;;;;4984383;28;20030;-74
2021/04/06 04:02:54;;;;;;;13.70;2.33;;;;;;;;;;4985330;28;20030;-74
2021/04/06 04:05:20;;;;;;;29.73;4.43;;;;;;;;;;4990524;28;20026;-74
2021/04/06 04:07:46;;;;;;;18.08;3.63;;;;;;;;;;4981863;28;20023;-77
2021/04/06 04:10:12;;;;;;;15.73;2.35;;;;;;;;;;4991384;28;20480;-72
2021/04/06 04:12:38;;;;;;;17.65;2.72;;;;;;;;;;4973754;28;20027;-73
2021/04/06 04:15:05;;;;;;;24.05;3.75;;;;;;;;;;4990876;28;20030;-72
2021/04/06 04:17:31;;;;;;;23.00;3.97;;;;;;;;;;4982398;28;20030;-77
2021/04/06 04:19:57;;;;;;;24.27;3.38;;;;;;;;;;4991387;28;20101;-72
2021/04/06 04:22:23;;;;;;;31.45;4.78;;;;;;;;;;4986071;28;20035;-72
2021/04/06 04:24:49;;;;;;;20.02;3.25;;;;;;;;;;4990828;28;20057;-70
2021/04/06 04:27:15;;;;;;;24.13;3.28;;;;;;;;;;4987615;28;20033;-73
2021/04/06 04:29:41;;;;;;;16.90;2.33;;;;;;;;;;4974685;28;20026;-75
2021/04/06 04:32:13;;;;;;;20.52;2.42;;;;;;;;;;4988480;28;20054;-72
2021/04/06 04:34:39;;;;;;;18.50;4.38;;;;;;;;;;4989046;28;20027;-73
2021/04/06 04:37:05;;;;;;;33.80;4.28;;;;;;;;;;4983361;28;20110;-74
2021/04/06 04:39:31;;;;;;;27.00;3.22;;;;;;;;;;4990811;28;20026;-73
2021/04/06 04:41:57;;;;;;;15.48;2.78;;;;;;;;;;4980598;28;20040;-76
2021/04/06 04:44:23;;;;;;;13.50;2.85;;;;;;;;;;4991183;28;20014;-71
2021/04/06 04:46:49;;;;;;;21.85;2.10;;;;;;;;;;4989747;28;20037;-71
2021/04/06 04:49:15;;;;;;;19.92;1.98;;;;;;;;;;4979726;28;20022;-73
2021/04/06 04:51:41;;;;;;;10.35;2.30;;;;;;;;;;4971428;28;20026;-73
2021/04/06 04:54:08;;;;;;;16.75;3.22;;;;;;;;;;4993901;28;20514;-75
2021/04/06 04:56:34;;;;;;;23.35;3.28;;;;;;;;;;4988334;28;20121;-78
2021/04/06 04:59:00;;;;;;;16.30;3.58;;;;;;;;;;4988638;28;20026;-75
2021/04/06 05:01:26;;;;;;;21.35;2.58;;;;;;;;;;4989956;28;20041;-74
2021/04/06 05:03:52;;;;;;;18.02;2.33;;;;;;;;;;4989346;28;20138;-72
2021/04/06 05:06:18;;;;;;;16.45;2.15;;;;;;;;;;4990871;28;20027;-73
2021/04/06 05:08:44;;;;;;;9.57;1.50;;;;;;;;;;4987921;28;20493;-71
2021/04/06 05:11:10;;;;;;;13.82;1.80;;;;;;;;;;4990522;28;20109;-70
2021/04/06 05:13:36;;;;;;;13.50;1.85;;;;;;;;;;4990376;28;20085;-73
2021/04/06 05:16:02;;;;;;;15.80;1.90;;;;;;;;;;4990720;28;20050;-74
2021/04/06 05:18:28;;;;;;;18.35;2.70;;;;;;;;;;4987288;28;20412;-73
2021/04/06 05:20:54;;;;;;;16.42;2.63;;;;;;;;;;4990300;28;20027;-70
2021/04/06 05:23:20;;;;;;;13.98;2.47;;;;;;;;;;4990337;28;20030;-69
2021/04/06 05:25:47;;;;;;;10.95;2.10;;;;;;;;;;4987708;28;20106;-71
2021/04/06 05:28:13;;;;;;;17.80;2.85;;;;;;;;;;4988129;28;20527;-73
2021/04/06 05:30:39;;;;;;;24.80;2.88;;;;;;;;;;4990619;28;20030;-70
2021/04/06 05:33:05;;;;;;;29.77;3.30;;;;;;;;;;4990221;28;20497;-69
2021/04/06 05:35:31;;;;;;;21.70;2.65;;;;;;;;;;4992381;28;20027;-72
2021/04/06 05:37:58;;;;;;;20.73;2.92;;;;;;;;;;4992363;28;20157;-70
2021/04/06 05:40:25;;;;;;;21.25;2.95;;;;;;;;;;4993829;28;20670;-71
2021/04/06 05:42:51;;;;;;;27.60;4.82;;;;;;;;;;4992046;28;20120;-75
2021/04/06 05:45:19;;;;;;;23.50;2.83;;;;;;;;;;4993673;28;20607;-73
2021/04/06 05:47:46;;;;;;;7.55;2.08;;;;;;;;;;4991847;28;20054;-72
2021/04/06 05:50:12;;;;;;;15.95;2.60;;;;;;;;;;4994063;28;20512;-70
2021/04/06 05:52:38;;;;;;;20.42;3.10;;;;;;;;;;4976181;28;20030;-72
2021/04/06 05:55:06;;;;;;;18.70;3.13;;;;;;;;;;4992149;28;20034;-73
2021/04/06 05:57:32;;;;;;;14.90;2.65;;;;;;;;;;4991171;28;20729;-73
2021/04/06 05:59:58;;;;;;;25.35;3.90;;;;;;;;;;4993505;28;20531;-69
2021/04/06 06:02:25;;;;;;;24.98;3.35;;;;;;;;;;4990371;28;20026;-70
2021/04/06 06:04:51;;;;;;;17.92;2.20;;;;;;;;;;4992670;28;20026;-69
2021/04/06 06:07:17;;;;;;;26.30;3.80;;;;;;;;;;4989503;28;20045;-72
2021/04/06 06:09:43;;;;;;;16.73;3.05;;;;;;;;;;4983914;28;20075;-74
2021/04/06 06:12:10;;;;;;;16.80;3.00;;;;;;;;;;4994765;28;20044;-75
2021/04/06 06:14:36;;;;;;;20.88;2.83;;;;;;;;;;4992676;28;20480;-74
2021/04/06 06:17:16;;;;;;;16.08;2.30;;;;;;;;;;4989703;28;20029;-73
2021/04/06 06:19:43;;;;;;;12.60;2.63;;;;;;;;;;4993166;28;20069;-69
2021/04/06 06:22:10;;;;;;;27.83;3.13;;;;;;;;;;4990624;28;20061;-70
2021/04/06 06:24:38;;;;;;;15.50;3.50;;;;;;;;;;4990964;28;20064;-71
2021/04/06 06:27:22;;;;;;;14.65;2.05;;;;;;;;;;4992036;28;20025;-70
2021/04/06 06:29:48;;;;;;;24.60;3.22;;;;;;;;;;4989577;28;21346;-69
2021/04/06 06:32:21;;;;;;;21.73;2.88;;;;;;;;;;4991155;28;20054;-69
2021/04/06 06:34:47;;;;;;;21.98;3.78;;;;;;;;;;4993000;28;20117;-68
2021/04/06 06:37:13;;;;;;;22.45;3.22;;;;;;;;;;4973980;28;20018;-67
2021/04/06 06:39:41;;;;;;;14.48;2.97;;;;;;;;;;4971293;28;20064;-68
2021/04/06 06:42:09;;;;;;;29.30;3.83;;;;;;;;;;4980291;28;20022;-68
2021/04/06 06:44:35;;;;;;;23.63;3.03;;;;;;;;;;4994061;28;20023;-68
2021/04/06 06:47:04;;;;;;;12.85;2.55;;;;;;;;;;4991715;28;20020;-69
2021/04/06 06:49:35;;;;;;;10.75;1.88;;;;;;;;;;4988351;28;20164;-68
2021/04/06 06:52:01;;;;;;;8.55;1.73;;;;;;;;;;4997758;28;20028;-68
2021/04/06 06:54:34;;;;;;;20.25;3.40;;;;;;;;;;4992862;28;20027;-68
2021/04/06 06:57:11;;;;;;;15.02;2.20;;;;;;;;;;4986705;28;20412;-70
2021/04/06 06:59:38;;;;;;;13.10;2.80;;;;;;;;;;4985812;28;20030;-71
2021/04/06 07:02:24;;;;;;;7.03;1.73;;;;;;;;;;4988981;28;20042;-68
2021/04/06 07:04:50;;;;;;;10.70;1.85;;;;;;;;;;4992985;28;20031;-69
2021/04/06 07:07:17;;;;;;;15.75;2.92;;;;;;;;;;4989434;28;20022;-71
2021/04/06 07:09:44;;;;;;;12.38;1.85;;;;;;;;;;4991865;28;20027;-71
2021/04/06 07:12:10;;;;;;;12.63;2.30;;;;;;;;;;4991122;28;20034;-72
2021/04/06 07:14:39;;;;;;;17.27;2.58;;;;;;;;;;4997004;28;20105;-70
2021/04/06 07:17:05;;;;;;;11.27;1.63;;;;;;;;;;4994204;28;20732;-71
2021/04/06 07:19:33;;;;;;;13.98;2.47;;;;;;;;;;4994104;28;20038;-71
2021/04/06 07:22:01;;;;;;;8.93;2.25;;;;;;;;;;4986349;28;20122;-70
2021/04/06 07:24:29;;;;;;;13.93;3.63;;;;;;;;;;4999442;28;20048;-69
2021/04/06 07:26:57;;;;;;;19.48;2.53;;;;;;;;;;4990180;28;20713;-69
2021/04/06 07:29:23;;;;;;;15.50;2.40;;;;;;;;;;4990379;28;20022;-73
2021/04/06 07:31:49;;;;;;;15.73;3.35;;;;;;;;;;4993530;28;20050;-72
2021/04/06 07:34:17;;;;;;;19.45;3.20;;;;;;;;;;4986596;28;20038;-69
2021/04/06 07:36:44;;;;;;;24.73;2.70;;;;;;;;;;4980446;28;20034;-71
2021/04/06 07:39:12;;;;;;;24.90;3.92;;;;;;;;;;4973462;28;20069;-71
2021/04/06 07:41:43;;;;;;;14.27;2.65;;;;;;;;;;4991873;28;20049;-70
2021/04/06 07:44:10;;;;;;;22.38;3.17;;;;;;;;;;4989668;28;20029;-72
2021/04/06 07:46:36;;;;;;;21.98;2.95;;;;;;;;;;4989187;28;20109;-72
2021/04/06 07:49:09;;;;;;;24.48;3.72;;;;;;;;;;4991319;28;20029;-71
2021/04/06 07:51:39;;;;;;;21.92;2.40;;;;;;;;;;4993131;28;20046;-70
2021/04/06 07:54:09;;;;;;;20.95;3.47;;;;;;;;;;4994433;28;20516;-72
2021/04/06 07:56:45;;;;;;;15.60;2.83;;;;;;;;;;4990323;28;20092;-71
2021/04/06 07:59:19;;;;;;;25.20;3.10;;;;;;;;;;4995774;28;20038;-71
2021/04/06 08:02:06;;;;;;;16.55;2.78;;;;;;;;;;4988258;28;20384;-69
2021/04/06 08:04:38;;;;;;;15.55;2.08;;;;;;;;;;4973210;28;20046;-73
2021/04/06 08:07:19;;;;;;;11.65;2.38;;;;;;;;;;4985746;28;20025;-69
2021/04/06 08:09:56;;;;;;;12.88;2.30;;;;;;;;;;4986095;28;20027;-71
2021/04/06 08:12:35;;;;;;;16.33;2.45;;;;;;;;;;4970945;28;20121;-71
2021/04/06 08:15:01;;;;;;;13.52;2.85;;;;;;;;;;4994981;28;20030;-72
2021/04/06 08:17:27;;;;;;;16.63;2.30;;;;;;;;;;4988847;28;20081;-70
2021/04/06 08:19:59;;;;;;;15.60;1.83;;;;;;;;;;4987450;28;20033;-72
2021/04/06 08:22:28;;;;;;;12.25;2.08;;;;;;;;;;4987967;28;20173;-72
2021/04/06 08:25:14;;;;;;;20.48;2.80;;;;;;;;;;4974935;28;20030;-73
2021/04/06 08:27:40;;;;;;;21.15;2.25;;;;;;;;;;4989409;28;20034;-71
2021/04/06 08:30:26;;;;;;;12.98;3.85;;;;;;;;;;4985601;28;20026;-69
2021/04/06 08:32:59;;;;;;;16.05;2.50;;;;;;;;;;4985435;28;20089;-70
2021/04/06 08:35:40;;;;;;;16.55;2.00;;;;;;;;;;4992437;28;20030;-71
2021/04/06 08:38:24;;;;;;;12.57;1.80;;;;;;;;;;4982901;28;20608;-69
2021/04/06 08:40:52;;;;;;;12.55;1.58;;;;;;;;;;4987478;28;20045;-70
2021/04/06 08:43:19;;;;;;;9.77;1.80;;;;;;;;;;4987874;28;20030;-70
2021/04/06 08:46:05;;;;;;;8.00;1.23;;;;;;;;;;4968314;28;20049;-69
2021/04/06 08:48:50;;;;;;;22.92;2.50;;;;;;;;;;4981223;28;20035;-69
2021/04/06 08:51:26;;;;;;;11.25;1.73;;;;;;;;;;4973929;28;20408;-69
2021/04/06 08:53:59;;;;;;;11.38;1.77;;;;;;;;;;4984299;28;20081;-69
2021/04/06 08:56:27;;;;;;;18.02;2.80;;;;;;;;;;4973148;28;20042;-69
2021/04/06 08:59:12;;;;;;;23.10;2.10;;;;;;;;;;4986517;28;20027;-69
2021/04/06 09:01:39;;;;;;;21.83;2.53;;;;;;;;;;4986252;28;20096;-70
2021/04/06 09:04:14;;;;;;;14.93;3.22;;;;;;;;;;4992955;28;20244;-69
2021/04/06 09:06:40;;;;;;;18.77;3.30;;;;;;;;;;4979600;28;20022;-68
2021/04/06 09:09:06;;;;;;;21.08;3.20;;;;;;;;;;4984559;28;20061;-68
2021/04/06 09:11:32;;;;;;;18.95;4.40;;;;;;;;;;4991014;28;20532;-67
2021/04/06 09:13:58;;;;;;;18.75;3.10;;;;;;;;;;4990536;28;20069;-70
2021/04/06 09:16:25;;;;;;;16.42;2.47;;;;;;;;;;4988042;28;20027;-71
2021/04/06 09:18:55;;;;;;;20.52;3.78;;;;;;;;;;4990039;28;20122;-72
2021/04/06 09:21:22;;;;;;;21.33;3.88;;;;;;;;;;4988229;28;20069;-71
2021/04/06 09:23:55;;;;;;;34.10;5.40;;;;;;;;;;4990595;28;20165;-72
2021/04/06 09:26:22;;;;;;;26.50;4.30;;;;;;;;;;4986024;28;20576;-72
2021/04/06 09:28:58;;;;;;;14.32;2.17;;;;;;;;;;4991394;28;20044;-73
2021/04/06 09:31:31;;;;;;;14.25;2.58;;;;;;;;;;4989991;28;20038;-71
2021/04/06 09:34:05;;;;;;;21.38;2.90;;;;;;;;;;4971382;28;20444;-72
2021/04/06 09:36:31;;;;;;;17.15;3.35;;;;;;;;;;4987334;28;20023;-73
2021/04/06 09:38:57;;;;;;;8.70;1.27;;;;;;;;;;4971507;28;20481;-75
2021/04/06 09:41:27;;;;;;;10.00;1.98;;;;;;;;;;4987700;28;20018;-71
2021/04/06 09:43:53;;;;;;;14.70;2.08;;;;;;;;;;4990665;28;20024;-71
2021/04/06 09:46:19;;;;;;;11.48;1.40;;;;;;;;;;4988775;28;20405;-71
2021/04/06 09:48:55;;;;;;;8.82;1.33;;;;;;;;;;4988222;28;20035;-72
2021/04/06 09:51:21;;;;;;;7.07;1.10;;;;;;;;;;4985057;28;20456;-73
2021/04/06 09:53:47;;;;;;;15.60;1.90;;;;;;;;;;4987316;28;20054;-73
2021/04/06 09:56:13;;;;;;;9.02;1.25;;;;;;;;;;4970859;28;20875;-72
2021/04/06 09:58:40;;;;;;;10.52;1.63;;;;;;;;;;4989804;28;20034;-72
2021/04/06 10:01:16;;;;;;;14.95;1.90;;;;;;;;;;4987759;28;20502;-70
2021/04/06 10:03:48;;;;;;;14.90;2.13;;;;;;;;;;4992371;28;20034;-73
2021/04/06 10:06:15;;;;;;;15.85;2.22;;;;;;;;;;4983993;28;20026;-71
2021/04/06 10:08:41;;;;;;;20.77;2.53;;;;;;;;;;4990284;28;20034;-72
2021/04/06 10:11:08;;;;;;;15.32;2.70;;;;;;;;;;4992561;28;20030;-72
2021/04/06 10:13:35;;;;;;;13.95;3.53;;;;;;;;;;4991638;28;20132;-72
2021/04/06 10:16:09;;;;;;;27.60;3.05;;;;;;;;;;4990675;28;20029;-72
2021/04/06 10:18:39;;;;;;;19.38;2.70;;;;;;;;;;4986988;28;20034;-72
2021/04/06 10:21:16;;;;;;;18.55;3.47;;;;;;;;;;4991447;28;20072;-72
2021/04/06 10:23:42;;;;;;;17.05;2.85;;;;;;;;;;4974069;28;20042;-73
2021/04/06 10:26:17;;;;;;;16.10;2.20;;;;;;;;;;4990451;28;20022;-72
2021/04/06 10:28:43;;;;;;;19.88;4.03;;;;;;;;;;4988927;28;20121;-72
2021/04/06 10:31:09;;;;;;;18.35;4.05;;;;;;;;;;4974598;28;20038;-75
2021/04/06 10:33:38;;;;;;;24.35;4.03;;;;;;;;;;4964728;28;20094;-72
2021/04/06 10:36:06;;;;;;;11.68;2.20;;;;;;;;;;4948083;28;20023;-72
2021/04/06 10:38:35;;;;;;;10.27;1.92;;;;;;;;;;4949982;28;20029;-72
2021/04/06 10:41:06;;;;;;;11.07;2.20;;;;;;;;;;4947333;28;20066;-71
2021/04/06 10:43:33;;;;;;;11.80;3.20;;;;;;;;;;4951720;29;20114;-71
2021/04/06 10:46:19;;;;;;;17.92;3.65;;;;;;;;;;4942367;28;20031;-71
2021/04/06 10:48:49;;;;;;;15.45;3.00;;;;;;;;;;4945833;28;20046;-77
2021/04/06 10:51:19;;;;;;;14.18;2.25;;;;;;;;;;4953943;29;20027;-74
2021/04/06 10:53:49;;;;;;;16.38;2.25;;;;;;;;;;4953228;28;20038;-75
2021/04/06 10:56:19;;;;;;;10.13;1.52;;;;;;;;;;4948067;28;20027;-77
2021/04/06 10:58:50;;;;;;;12.07;1.80;;;;;;;;;;4950825;29;20063;-72
2021/04/06 11:01:18;;;;;;;14.02;2.35;;;;;;;;;;4946121;29;20031;-78
2021/04/06 11:03:53;;;;;;;18.45;1.67;;;;;;;;;;4949303;28;20027;-78
2021/04/06 11:06:22;;;;;;;3.78;0.95;;;;;;;;;;4946658;29;20038;-75
2021/04/06 11:08:50;;;;;;;10.23;1.45;;;;;;;;;;4950203;29;20035;-73
2021/04/06 11:11:25;;;;;;;8.70;1.30;;;;;;;;;;4952367;28;20098;-73
2021/04/06 11:13:51;;;;;;;7.80;1.10;;;;;;;;;;4950648;29;20026;-73
2021/04/06 11:16:17;;;;;;;12.85;3.13;;;;;;;;;;4951247;29;20171;-73
2021/04/06 11:18:44;;;;;;;9.45;1.80;;;;;;;;;;4959356;28;20394;-69
2021/04/06 11:21:10;;;;;;;16.73;2.22;;;;;;;;;;4951994;28;20020;-71
2021/04/06 11:23:36;;;;;;;12.00;1.65;;;;;;;;;;4953148;28;20035;-74
2021/04/06 11:26:03;;;;;;;3.53;0.95;;;;;;;;;;4960868;28;20019;-72
2021/04/06 11:28:29;;;;;;;14.60;1.95;;;;;;;;;;4954731;28;20029;-72
2021/04/06 11:30:55;;;;;;;14.48;1.40;;;;;;;;;;4953145;28;20023;-71
2021/04/06 11:33:21;;;;;;;12.00;1.60;;;;;;;;;;4990385;28;20104;-72
2021/04/06 11:35:47;;;;;;;16.60;2.33;;;;;;;;;;4999375;28;20030;-73
2021/04/06 11:38:15;;;;;;;21.38;1.77;;;;;;;;;;4991604;28;20034;-71
2021/04/06 11:40:41;;;;;;;14.32;1.90;;;;;;;;;;4981537;28;20561;-73
2021/04/06 11:43:07;;;;;;;11.93;2.08;;;;;;;;;;4992277;28;20029;-70
2021/04/06 11:45:33;;;;;;;11.02;2.30;;;;;;;;;;4991435;28;20027;-70
2021/04/06 11:47:59;;;;;;;8.35;1.27;;;;;;;;;;4994610;28;20027;-71
2021/04/06 11:50:25;;;;;;;8.77;1.92;;;;;;;;;;4994905;28;20106;-72
2021/04/06 11:52:52;;;;;;;11.48;1.88;;;;;;;;;;5003292;28;20026;-71
2021/04/06 11:55:18;;;;;;;5.13;0.98;;;;;;;;;;5001009;28;20332;-72
2021/04/06 11:57:45;;;;;;;7.10;1.30;;;;;;;;;;4989566;28;20022;-69
2021/04/06 12:00:11;;;;;;;7.20;1.15;;;;;;;;;;4990267;28;20570;-70
2021/04/06 12:02:37;;;;;;;6.53;1.50;;;;;;;;;;4990053;28;20031;-72
2021/04/06 12:15:33;;;;;;;12.57;1.60;;;;;;;;;;5125674;27;20346;-71
2021/04/06 12:17:59;;;;;;;10.95;2.05;;;;;;;;;;5085808;28;20035;-72
2021/04/06 12:20:25;;;;;;;11.27;1.95;;;;;;;;;;5107067;28;20481;-74
2021/04/06 12:22:52;;;;;;;4.53;1.45;;;;;;;;;;5088338;28;20038;-70
2021/04/06 12:25:18;;;;;;;11.38;1.60;;;;;;;;;;5105862;28;20028;-71
2021/04/06 12:27:44;;;;;;;15.10;1.80;;;;;;;;;;5102213;28;20051;-71
2021/04/06 12:30:10;;;;;;;11.85;1.67;;;;;;;;;;5106923;28;20034;-73
2021/04/06 12:32:36;;;;;;;10.98;1.60;;;;;;;;;;5107060;28;20046;-73
2021/04/06 12:35:02;;;;;;;8.85;1.83;;;;;;;;;;5083529;28;20032;-70
2021/04/06 12:37:31;;;;;;;12.32;2.13;;;;;;;;;;5094716;28;20135;-70
2021/04/06 12:39:57;;;;;;;13.70;1.60;;;;;;;;;;5107201;28;20046;-73
2021/04/06 12:42:23;;;;;;;10.40;1.85;;;;;;;;;;5102489;28;20118;-79
2021/04/06 12:44:49;;;;;;;8.23;1.23;;;;;;;;;;5084517;28;20024;-71
2021/04/06 12:47:16;;;;;;;11.10;2.15;;;;;;;;;;5101263;28;20024;-70
2021/04/06 12:49:42;;;;;;;11.23;1.90;;;;;;;;;;5107900;28;20028;-74
2021/04/06 12:52:08;;;;;;;7.72;1.80;;;;;;;;;;5112996;28;20016;-74
2021/04/06 12:54:34;;;;;;;15.98;1.83;;;;;;;;;;5106974;28;20119;-72
2021/04/06 12:57:00;;;;;;;20.27;2.25;;;;;;;;;;5086452;28;20036;-70
2021/04/06 12:59:26;;;;;;;14.10;1.92;;;;;;;;;;5105779;28;20015;-73
2021/04/06 13:01:52;;;;;;;15.27;1.73;;;;;;;;;;5085954;28;20390;-76
2021/04/06 13:04:18;;;;;;;18.27;2.35;;;;;;;;;;5105180;28;20036;-71
2021/04/06 13:06:44;;;;;;;16.17;2.08;;;;;;;;;;5088144;28;20020;-71
2021/04/06 13:09:10;;;;;;;10.85;2.10;;;;;;;;;;5104583;27;20032;-75
2021/04/06 13:11:36;;;;;;;17.10;1.92;;;;;;;;;;5106475;28;20045;-75
2021/04/06 13:14:02;;;;;;;17.42;1.92;;;;;;;;;;5086905;28;20040;-72
2021/04/06 13:16:32;;;;;;;14.77;2.13;;;;;;;;;;5071813;28;20032;-74
2021/04/06 13:18:58;;;;;;;9.52;1.70;;;;;;;;;;5083572;28;20047;-71
2021/04/06 13:21:25;;;;;;;13.75;1.77;;;;;;;;;;5092538;28;20262;-70
2021/04/06 13:23:51;;;;;;;13.55;1.92;;;;;;;;;;5086919;28;20036;-72
2021/04/06 13:26:17;;;;;;;8.38;1.52;;;;;;;;;;5089941;28;20054;-76
2021/04/06 13:28:43;;;;;;;10.05;1.85;;;;;;;;;;5069947;28;20024;-74
2021/04/06 13:31:10;;;;;;;9.38;1.27;;;;;;;;;;5088641;28;20032;-71
2021/04/06 13:33:36;;;;;;;12.48;2.10;;;;;;;;;;5069416;28;20032;-73
2021/04/06 13:36:02;;;;;;;12.40;2.50;;;;;;;;;;5091604;28;20054;-70
2021/04/06 13:38:28;;;;;;;11.10;1.80;;;;;;;;;;5069129;28;20422;-76
2021/04/06 13:40:54;;;;;;;21.25;2.90;;;;;;;;;;5089614;28;20024;-74
2021/04/06 13:43:20;;;;;;;12.25;2.38;;;;;;;;;;5088059;28;20099;-80
2021/04/06 13:45:46;;;;;;;14.07;2.13;;;;;;;;;;5092004;28;20044;-77
2021/04/06 13:48:12;;;;;;;17.25;2.80;;;;;;;;;;5089596;28;20024;-72
2021/04/06 13:50:39;;;;;;;16.05;2.03;;;;;;;;;;5092676;28;20020;-73
2021/04/06 13:53:05;;;;;;;15.82;1.85;;;;;;;;;;5091318;28;20036;-71
2021/04/06 13:55:32;;;;;;;15.98;2.28;;;;;;;;;;5088214;28;20020;-70
2021/04/06 13:57:58;;;;;;;10.60;2.20;;;;;;;;;;5089881;28;20016;-76
2021/04/06 14:00:31;;;;;;;16.58;2.53;;;;;;;;;;5087750;28;20081;-77
2021/04/06 14:02:57;;;;;;;20.88;3.15;;;;;;;;;;5089350;28;20032;-75
2021/04/06 14:05:23;;;;;;;12.25;2.25;;;;;;;;;;5091252;28;20028;-80
2021/04/06 14:07:49;;;;;;;22.50;4.40;;;;;;;;;;5069801;28;20028;-71
2021/04/06 14:10:16;;;;;;;15.48;2.65;;;;;;;;;;5090477;28;20052;-71
2021/04/06 14:12:42;;;;;;;13.90;2.97;;;;;;;;;;5087771;28;20047;-72
2021/04/06 14:15:09;;;;;;;16.48;3.15;;;;;;;;;;5088065;28;20126;-72
2021/04/06 14:17:36;;;;;;;9.57;1.80;;;;;;;;;;5087629;28;20028;-73
2021/04/06 14:20:02;;;;;;;27.63;3.20;;;;;;;;;;5091390;28;20028;-70
2021/04/06 14:22:28;;;;;;;14.93;2.28;;;;;;;;;;5084311;28;20032;-75
2021/04/06 14:24:54;;;;;;;16.70;3.05;;;;;;;;;;5090965;28;20020;-75
2021/04/06 14:27:20;;;;;;;17.63;2.42;;;;;;;;;;5084430;28;20024;-72
2021/04/06 14:29:46;;;;;;;19.00;3.00;;;;;;;;;;5089943;28;20044;-76
2021/04/06 14:32:16;;;;;;;15.95;2.10;;;;;;;;;;5093267;28;20042;-71
2021/04/06 14:34:42;;;;;;;10.88;2.70;;;;;;;;;;5082806;28;20110;-73
2021/04/06 14:37:08;;;;;;;14.32;2.30;;;;;;;;;;5070160;28;20074;-70
2021/04/06 14:39:34;;;;;;;17.35;2.05;;;;;;;;;;5090626;28;20028;-71
2021/04/06 14:42:00;;;;;;;12.07;1.70;;;;;;;;;;5087686;28;20039;-76
2021/04/06 14:44:26;;;;;;;13.23;1.42;;;;;;;;;;5070609;28;20036;-77
2021/04/06 14:46:53;;;;;;;18.30;1.80;;;;;;;;;;5089688;28;20035;-71
2021/04/06 14:49:19;;;;;;;10.23;1.42;;;;;;;;;;5089284;28;20082;-72
2021/04/06 14:51:45;;;;;;;6.90;1.50;;;;;;;;;;5090472;28;20478;-77